Time;durP1;ratioP1;P1;durP2;ratioP2;P2;SDS_P1;SDS_P2;PMS_P1;PMS_P2;Temp;Humidity;BMP_temperature;BMP_pressure;BME280_temperature;BME280_humidity;BME280_pressure;Samples;Min_cycle;Max_cycle;Signal;HPM_P1;HPM_P2
2022/11/18 00:05:19;;;;;;;3.65;0.60;;;;;;;18.52;44.79;99391.13;16127405;19;129195;-42
2022/11/18 00:10:40;;;;;;;3.55;0.68;;;;;;;18.49;44.91;99401.91;16123473;19;130826;-43
2022/11/18 00:16:05;;;;;;;3.42;0.43;;;;;;;18.46;44.98;99409.66;16129404;19;130178;-43
2022/11/18 00:21:27;;;;;;;4.63;0.50;;;;;;;18.43;44.95;99418.56;16125911;19;129384;-42
2022/11/18 00:26:49;;;;;;;1.52;0.30;;;;;;;18.41;44.76;99415.22;16124733;19;129513;-42
2022/11/18 00:32:11;;;;;;;1.85;0.43;;;;;;;18.37;45.20;99430.72;16124298;19;130288;-43
2022/11/18 00:37:33;;;;;;;1.42;0.40;;;;;;;18.35;45.10;99423.81;16126354;19;129537;-42
2022/11/18 00:42:55;;;;;;;1.88;0.30;;;;;;;18.33;45.24;99432.41;16126622;19;131200;-43
2022/11/18 00:48:20;;;;;;;1.10;0.30;;;;;;;18.33;45.26;99442.63;16125784;19;129322;-43
2022/11/18 00:53:42;;;;;;;1.58;0.40;;;;;;;18.31;45.24;99440.16;16123336;19;129283;-42
2022/11/18 00:59:04;;;;;;;1.25;0.32;;;;;;;18.28;44.91;99440.69;16122324;19;129458;-43
2022/11/18 01:04:26;;;;;;;1.55;0.22;;;;;;;18.27;44.80;99444.59;16121028;19;130120;-43
2022/11/18 01:09:48;;;;;;;0.60;0.30;;;;;;;18.25;45.09;99446.78;16120914;19;129977;-43
2022/11/18 01:15:09;;;;;;;0.73;0.28;;;;;;;18.24;44.96;99458.97;16121889;19;129011;-43
2022/11/18 01:20:32;;;;;;;3.70;0.30;;;;;;;18.23;44.79;99465.63;16122161;19;130182;-43
2022/11/18 01:25:54;;;;;;;0.40;0.30;;;;;;;18.21;45.17;99462.31;16121087;19;129883;-43
2022/11/18 01:31:18;;;;;;;1.58;0.32;;;;;;;18.20;44.82;99471.72;16123287;19;129960;-44
2022/11/18 01:36:39;;;;;;;1.15;0.32;;;;;;;18.18;45.11;99483.06;16124417;19;130143;-43
2022/11/18 01:42:01;;;;;;;0.47;0.20;;;;;;;18.18;44.79;99490.56;16152944;19;129554;-42
2022/11/18 01:47:27;;;;;;;0.75;0.30;;;;;;;18.18;44.99;99501.63;16152158;19;130040;-42
2022/11/18 01:52:51;;;;;;;1.33;0.47;;;;;;;18.15;45.20;99506.59;16153267;19;129680;-42
2022/11/18 01:58:29;;;;;;;1.05;0.30;;;;;;;18.16;44.73;99510.19;16157093;19;129691;-42
2022/11/18 02:03:52;;;;;;;2.05;0.38;;;;;;;18.14;45.17;99515.19;16154296;19;129709;-42
2022/11/18 02:09:15;;;;;;;2.15;0.60;;;;;;;18.12;45.25;99532.06;16153198;19;130421;-34
2022/11/18 02:14:42;;;;;;;1.00;0.30;;;;;;;18.11;44.81;99535.94;16150030;19;129780;-35
2022/11/18 02:20:25;;;;;;;0.85;0.30;;;;;;;18.10;45.15;99545.34;16150884;19;129341;-34
2022/11/18 02:25:59;;;;;;;1.48;0.22;;;;;;;18.10;45.23;99556.41;16150275;19;129237;-34
2022/11/18 02:31:33;;;;;;;2.80;0.30;;;;;;;18.09;45.27;99565.00;16149449;19;130394;-34
2022/11/18 02:37:13;;;;;;;0.73;0.20;;;;;;;18.06;45.00;99571.06;16147639;19;128863;-34
2022/11/18 02:42:38;;;;;;;0.20;0.10;;;;;;;18.05;45.20;99574.94;16150960;19;129546;-34
2022/11/18 02:48:09;;;;;;;0.50;0.30;;;;;;;18.04;45.28;99582.44;16143438;19;129795;-35
2022/11/18 02:53:32;;;;;;;0.77;0.32;;;;;;;18.02;45.09;99584.66;16129946;19;133141;-34
2022/11/18 02:58:54;;;;;;;0.82;0.20;;;;;;;18.02;45.01;99589.34;16133083;19;129426;-34
2022/11/18 03:04:17;;;;;;;0.88;0.20;;;;;;;18.01;45.40;99594.03;16130504;19;134490;-34
2022/11/18 03:09:43;;;;;;;0.95;0.30;;;;;;;18.00;45.15;99598.75;16127566;19;129455;-35
2022/11/18 03:15:33;;;;;;;0.65;0.40;;;;;;;18.00;45.05;99603.44;16128690;19;130089;-35
2022/11/18 03:21:07;;;;;;;1.58;0.30;;;;;;;17.98;45.33;99609.28;16132599;19;129410;-34
2022/11/18 03:26:32;;;;;;;1.55;0.50;;;;;;;17.97;45.19;99615.09;16130833;19;129036;-34
2022/11/18 03:32:03;;;;;;;1.95;0.30;;;;;;;17.96;45.20;99627.25;16130747;19;129139;-34
2022/11/18 03:37:27;;;;;;;0.80;0.30;;;;;;;17.96;45.11;99632.78;16131078;19;129286;-34
2022/11/18 03:42:55;;;;;;;0.88;0.20;;;;;;;17.95;45.51;99637.47;16129295;19;129602;-34
2022/11/18 03:48:25;;;;;;;0.65;0.30;;;;;;;17.95;45.25;99636.66;16128446;19;131181;-34
2022/11/18 03:53:55;;;;;;;0.20;0.20;;;;;;;17.95;45.06;99644.97;16125363;19;129741;-34
2022/11/18 03:59:23;;;;;;;0.25;0.15;;;;;;;17.93;45.10;99644.41;16122986;19;129218;-34
2022/11/18 04:04:48;;;;;;;1.02;0.55;;;;;;;17.92;45.15;99659.34;16123333;19;129509;-35
2022/11/18 04:10:16;;;;;;;0.20;0.20;;;;;;;17.91;45.55;99663.22;16124605;19;130486;-34
2022/11/18 04:15:40;;;;;;;0.30;0.30;;;;;;;17.88;45.07;99664.59;16123561;19;130104;-34
2022/11/18 04:21:02;;;;;;;2.83;0.25;;;;;;;17.89;44.97;99682.00;16126650;19;130834;-35
2022/11/18 04:26:23;;;;;;;0.20;0.10;;;;;;;17.89;45.41;99687.53;16124438;19;129515;-34
2022/11/18 04:31:45;;;;;;;0.95;0.20;;;;;;;17.88;45.35;99680.34;16122276;19;129442;-35
2022/11/18 04:37:07;;;;;;;1.33;0.20;;;;;;;17.86;44.97;99688.94;16125269;19;130699;-34
2022/11/18 04:42:29;;;;;;;2.15;0.20;;;;;;;17.85;44.89;99688.06;16122971;19;129419;-34
2022/11/18 04:47:50;;;;;;;0.60;0.25;;;;;;;17.84;45.32;99694.75;16126349;19;129526;-35
2022/11/18 04:53:12;;;;;;;1.20;0.30;;;;;;;17.83;44.94;99700.53;16124971;19;129906;-34
2022/11/18 04:58:34;;;;;;;0.13;0.13;;;;;;;17.82;45.00;99696.09;16125405;19;130316;-35
2022/11/18 05:03:56;;;;;;;0.50;0.30;;;;;;;17.81;45.13;99714.63;16125774;19;136520;-34
2022/11/18 05:09:18;;;;;;;0.60;0.20;;;;;;;17.80;45.14;99712.97;16126142;19;129986;-35
2022/11/18 05:14:41;;;;;;;0.85;0.45;;;;;;;17.80;44.98;99724.03;16124463;19;130171;-34
2022/11/18 05:20:11;;;;;;;0.30;0.20;;;;;;;17.79;44.88;99730.69;16125089;19;129948;-34
2022/11/18 05:25:34;;;;;;;1.05;0.40;;;;;;;17.78;45.15;99734.53;16122227;19;129829;-35
2022/11/18 05:30:56;;;;;;;0.80;0.20;;;;;;;17.77;45.23;99740.34;16123665;19;129676;-34
2022/11/18 05:36:19;;;;;;;0.52;0.28;;;;;;;17.76;44.76;99752.53;16122461;19;130669;-34
2022/11/18 05:47:23;;;;;;;2.05;0.25;;;;;;;17.74;44.84;99771.31;16122060;19;129535;-34
2022/11/18 05:52:45;;;;;;;0.93;0.20;;;;;;;17.73;44.91;99773.22;16119187;19;129637;-34
2022/11/18 05:58:07;;;;;;;3.00;0.20;;;;;;;17.73;45.02;99781.53;16120764;19;129593;-36
2022/11/18 06:03:32;;;;;;;0.95;0.28;;;;;;;17.73;45.14;99789.81;16119587;19;129766;-35
2022/11/18 06:09:03;;;;;;;0.32;0.17;;;;;;;17.82;44.83;99788.25;16118005;19;129323;-34
2022/11/18 06:14:34;;;;;;;0.20;0.17;;;;;;;18.17;44.67;99798.91;16116592;19;129522;-34
2022/11/18 06:19:56;;;;;;;0.75;0.20;;;;;;;18.53;44.18;99812.91;16118401;19;131244;-34
2022/11/18 06:25:18;;;;;;;0.73;0.20;;;;;;;18.76;43.66;99814.34;16127673;19;129634;-35
2022/11/18 06:30:40;;;;;;;1.55;0.22;;;;;;;18.91;43.58;99819.06;16134800;19;129972;-34
2022/11/18 06:36:02;;;;;;;0.57;0.30;;;;;;;18.97;43.61;99834.59;16132414;19;129382;-34
2022/11/18 06:41:24;;;;;;;1.90;0.30;;;;;;;18.95;43.58;99831.28;16133427;19;130694;-34
2022/11/18 06:46:55;;;;;;;3.03;0.38;;;;;;;18.90;43.38;99834.84;16131731;19;131183;-34
2022/11/18 06:52:16;;;;;;;2.50;0.40;;;;;;;18.84;43.49;99846.19;16130904;19;129693;-35
2022/11/18 06:57:38;;;;;;;2.85;0.40;;;;;;;18.77;43.78;99852.84;16130369;19;129682;-34
2022/11/18 07:03:01;;;;;;;0.98;0.30;;;;;;;18.70;43.80;99863.38;16134635;19;129135;-34
2022/11/18 07:08:23;;;;;;;1.00;0.40;;;;;;;18.64;43.90;99864.44;16129766;19;130429;-34
2022/11/18 07:13:45;;;;;;;2.53;0.47;;;;;;;18.60;43.97;99866.94;16127860;19;129485;-34
2022/11/18 07:19:10;;;;;;;1.15;0.43;;;;;;;18.71;43.82;99881.63;16129352;19;129250;-34
2022/11/18 07:24:31;;;;;;;0.98;0.22;;;;;;;18.73;43.79;99892.47;16129126;19;129506;-34
2022/11/18 07:29:53;;;;;;;1.75;0.40;;;;;;;18.98;43.20;99908.31;16129963;19;129649;-34
2022/11/18 07:35:17;;;;;;;1.80;0.50;;;;;;;19.14;42.35;99920.25;16124515;19;129450;-34
2022/11/18 07:40:39;;;;;;;3.95;0.60;;;;;;;19.78;41.35;99920.88;16125085;19;129377;-34
2022/11/18 07:46:18;;;;;;;2.85;0.50;;;;;;;20.03;40.79;99924.78;16125876;19;129571;-34
2022/11/18 07:51:40;;;;;;;1.27;0.38;;;;;;;20.03;40.89;99923.97;16126584;19;129837;-35
2022/11/18 07:57:01;;;;;;;3.85;0.32;;;;;;;19.78;41.23;99931.16;16128594;19;129541;-34
2022/11/18 08:02:23;;;;;;;1.20;0.40;;;;;;;19.49;41.26;99945.59;16127657;19;129744;-34
2022/11/18 08:07:45;;;;;;;5.05;0.70;;;;;;;19.13;41.77;99939.94;16128520;19;129484;-35
2022/11/18 08:13:06;;;;;;;1.38;0.40;;;;;;;19.03;41.86;99943.53;16129499;19;129639;-34
2022/11/18 08:18:29;;;;;;;1.70;0.52;;;;;;;18.84;42.49;99946.81;16131290;19;129599;-34
2022/11/18 08:23:53;;;;;;;1.65;0.40;;;;;;;18.66;43.00;99955.59;16127947;19;129023;-34
2022/11/18 08:29:15;;;;;;;1.15;0.30;;;;;;;18.53;42.89;99968.00;16127382;19;129913;-34
2022/11/18 08:34:45;;;;;;;0.90;0.32;;;;;;;18.44;43.37;99968.53;16124064;19;129516;-34
2022/11/18 08:40:07;;;;;;;0.70;0.30;;;;;;;18.34;43.47;99979.47;16126040;19;129289;-34
2022/11/18 08:45:28;;;;;;;0.60;0.20;;;;;;;18.27;43.64;99989.97;16123086;19;129559;-34
2022/11/18 08:50:51;;;;;;;0.93;0.30;;;;;;;18.19;43.84;99987.72;16125133;19;129494;-39
2022/11/18 08:56:22;;;;;;;3.03;0.40;;;;;;;18.14;43.92;99997.63;16125194;19;131338;-34
2022/11/18 09:01:44;;;;;;;3.67;0.32;;;;;;;18.08;44.09;99990.41;16122535;19;129533;-34
2022/11/18 09:07:06;;;;;;;2.08;0.30;;;;;;;18.05;44.14;100015.00;16128154;19;129685;-34
2022/11/18 09:12:27;;;;;;;2.40;0.30;;;;;;;18.05;43.77;100023.28;16123837;19;130060;-34
2022/11/18 09:17:49;;;;;;;1.42;0.35;;;;;;;18.06;43.64;100014.75;16126345;19;129755;-34
2022/11/18 09:23:11;;;;;;;1.63;0.40;;;;;;;18.12;44.09;100018.38;16123611;19;135265;-34
2022/11/18 09:28:33;;;;;;;2.17;0.30;;;;;;;18.22;44.03;100028.69;16121761;19;129540;-34
2022/11/18 09:33:58;;;;;;;0.40;0.28;;;;;;;18.40;43.76;100031.06;16121660;19;129499;-34
2022/11/18 09:39:19;;;;;;;0.30;0.28;;;;;;;18.58;43.36;100043.66;16123993;19;129868;-34
2022/11/18 09:45:01;;;;;;;3.08;0.40;;;;;;;18.71;43.51;100045.09;16122852;19;129534;-34
2022/11/18 09:50:23;;;;;;;0.40;0.22;;;;;;;18.79;43.09;100048.47;16122212;19;130096;-34
2022/11/18 09:56:13;;;;;;;0.43;0.20;;;;;;;18.82;43.04;100053.50;16121017;19;130085;-34
2022/11/18 10:01:35;;;;;;;1.60;0.30;;;;;;;18.80;43.12;100064.00;16137197;19;129127;-34
2022/11/18 10:06:57;;;;;;;0.60;0.20;;;;;;;18.77;43.23;100068.13;16136551;19;129325;-34
2022/11/18 10:12:24;;;;;;;0.63;0.32;;;;;;;18.74;43.18;100075.03;16136810;19;129684;-34
2022/11/18 10:18:21;;;;;;;0.32;0.20;;;;;;;18.71;43.11;100089.44;16135481;19;129429;-34
2022/11/18 10:24:17;;;;;;;0.32;0.20;;;;;;;18.68;43.17;100083.59;16134606;19;129451;-34
2022/11/18 10:29:41;;;;;;;0.60;0.22;;;;;;;18.61;43.34;100087.44;16134170;19;129179;-34
2022/11/18 10:35:20;;;;;;;0.93;0.40;;;;;;;18.56;43.20;100101.25;16133723;19;129594;-34
2022/11/18 10:41:12;;;;;;;1.60;0.20;;;;;;;18.54;43.68;100094.31;16132153;19;130071;-34
2022/11/18 10:46:38;;;;;;;0.77;0.30;;;;;;;18.49;43.63;100099.81;16134275;19;130252;-34
2022/11/18 10:52:09;;;;;;;0.30;0.25;;;;;;;18.47;43.72;100113.94;16135796;19;130358;-34
2022/11/18 10:57:37;;;;;;;1.00;0.40;;;;;;;18.43;43.65;100112.78;16130791;19;129550;-34
2022/11/18 11:03:00;;;;;;;2.30;0.40;;;;;;;18.39;43.99;100119.94;16131926;19;129180;-34
2022/11/18 11:08:22;;;;;;;0.30;0.20;;;;;;;18.37;44.00;100119.34;16128927;19;129393;-34
2022/11/18 11:14:22;;;;;;;0.80;0.20;;;;;;;18.35;43.71;100124.31;16127807;19;129197;-34
2022/11/18 11:20:04;;;;;;;6.18;0.80;;;;;;;18.31;43.60;100124.03;16127092;19;129606;-34
2022/11/18 11:25:55;;;;;;;2.22;0.40;;;;;;;18.26;43.67;100118.44;16129467;19;130074;-34
2022/11/18 11:32:14;;;;;;;1.30;0.35;;;;;;;18.24;44.00;100115.94;16126614;19;129790;-34
2022/11/18 11:37:57;;;;;;;2.08;0.47;;;;;;;18.20;44.25;100119.50;16129374;19;134863;-34
2022/11/18 11:43:41;;;;;;;2.55;0.55;;;;;;;18.17;44.16;100128.31;16127569;19;130724;-34
2022/11/18 11:49:23;;;;;;;5.32;0.68;;;;;;;18.15;44.17;100128.59;16128436;19;129756;-34
2022/11/18 11:54:54;;;;;;;4.40;0.55;;;;;;;18.12;43.99;100134.66;16125546;19;129494;-34
2022/11/18 12:00:18;;;;;;;2.53;0.45;;;;;;;18.08;44.12;100133.50;16128252;19;132982;-34
2022/11/18 12:05:41;;;;;;;4.10;0.63;;;;;;;18.07;44.11;100149.28;16127239;19;129925;-34
2022/11/18 12:11:15;;;;;;;7.15;0.73;;;;;;;18.06;44.27;100146.75;16125953;19;130062;-34
2022/11/18 12:16:50;;;;;;;1.38;0.40;;;;;;;18.04;44.41;100147.03;16128130;19;129868;-34
2022/11/18 12:22:13;;;;;;;0.95;0.50;;;;;;;18.01;44.01;100147.53;16127246;19;129575;-34
2022/11/18 12:27:38;;;;;;;3.55;0.40;;;;;;;18.05;44.05;100158.91;16126423;19;129682;-34
2022/11/18 12:33:00;;;;;;;;;;;;;;;18.07;43.83;100165.03;16125971;19;129853;-34
2022/11/18 12:38:31;;;;;;;3.33;0.30;;;;;;;18.21;43.92;100165.47;16123972;19;130266;-34
2022/11/18 12:43:59;;;;;;;1.67;0.50;;;;;;;18.32;43.78;100170.00;16129060;19;129587;-34
2022/11/18 12:49:21;;;;;;;2.60;0.55;;;;;;;18.40;43.95;100169.53;16126018;19;129175;-34
2022/11/18 12:54:46;;;;;;;1.52;0.43;;;;;;;18.45;43.79;100171.50;16123191;19;129584;-34
2022/11/18 13:00:50;;;;;;;1.05;0.47;;;;;;;18.46;43.69;100176.78;16126293;19;129300;-34
2022/11/18 13:06:23;;;;;;;3.40;0.47;;;;;;;18.46;43.45;100176.78;16127343;19;129624;-34
2022/11/18 13:11:50;;;;;;;2.38;0.52;;;;;;;18.43;43.99;100184.78;16125317;19;129678;-35
2022/11/18 13:18:10;;;;;;;1.40;0.40;;;;;;;18.41;43.97;100186.97;16124652;19;129468;-34
2022/11/18 13:29:30;;;;;;;1.75;0.20;;;;;;;18.33;44.07;100192.97;16123347;19;129082;-34
2022/11/18 13:34:57;;;;;;;3.03;0.47;;;;;;;18.28;43.73;100199.31;16121158;19;129654;-34
2022/11/18 13:40:28;;;;;;;6.45;1.33;;;;;;;18.25;43.77;100197.03;16120313;19;129365;-34
2022/11/18 13:45:50;;;;;;;7.38;0.80;;;;;;;18.20;44.07;100197.84;16121133;19;129600;-34
2022/11/18 13:51:11;;;;;;;8.55;1.05;;;;;;;18.18;44.24;100199.19;16118244;19;129569;-34
2022/11/18 13:56:33;;;;;;;5.88;1.08;;;;;;;18.16;44.02;100193.91;16116764;19;130330;-34
2022/11/18 14:01:58;;;;;;;10.77;1.20;;;;;;;18.18;43.87;100201.97;16119179;19;135112;-35
2022/11/18 14:07:26;;;;;;;5.07;0.93;;;;;;;18.20;44.03;100191.47;16119862;19;129984;-34
2022/11/18 14:12:56;;;;;;;9.77;1.10;;;;;;;18.22;43.86;100200.31;16118001;19;129336;-34
2022/11/18 14:18:25;;;;;;;10.13;1.27;;;;;;;18.21;44.33;100199.50;16120511;19;129627;-37
2022/11/18 14:23:47;;;;;;;12.40;1.50;;;;;;;18.20;44.29;100208.91;16120888;19;130207;-34
2022/11/18 14:29:21;;;;;;;8.48;1.42;;;;;;;18.17;44.25;100212.19;16119427;19;129572;-34
2022/11/18 14:34:43;;;;;;;4.28;0.82;;;;;;;18.12;44.48;100218.50;16116624;19;129644;-34
2022/11/18 14:40:12;;;;;;;3.05;0.82;;;;;;;18.13;44.49;100225.72;16120179;19;129501;-34
2022/11/18 14:45:34;;;;;;;3.25;0.60;;;;;;;18.20;44.58;100224.69;16125956;19;129629;-34
2022/11/18 14:50:56;;;;;;;2.78;0.50;;;;;;;18.35;44.15;100224.00;16135955;19;133861;-34
2022/11/18 14:56:27;;;;;;;5.40;0.73;;;;;;;18.55;44.16;100228.94;16132624;19;129038;-34
2022/11/18 15:01:49;;;;;;;3.88;0.40;;;;;;;18.69;43.64;100240.41;16133040;19;129200;-34
2022/11/18 15:07:13;;;;;;;4.93;1.05;;;;;;;18.82;43.57;100236.38;16132714;19;129450;-34
2022/11/18 15:12:43;;;;;;;4.50;0.47;;;;;;;18.92;43.26;100250.31;16129868;19;129266;-42
2022/11/18 15:18:05;;;;;;;3.83;0.60;;;;;;;19.01;43.16;100250.69;16130228;19;129717;-42
2022/11/18 15:23:26;;;;;;;3.20;0.70;;;;;;;19.04;43.37;100252.91;16129739;19;129506;-43
2022/11/18 15:28:52;;;;;;;2.03;0.63;;;;;;;19.03;43.32;100254.00;16131897;19;129178;-43
2022/11/18 15:34:16;;;;;;;3.63;0.38;;;;;;;18.98;43.12;100263.09;16129500;19;129614;-42
2022/11/18 15:39:38;;;;;;;3.30;0.77;;;;;;;18.92;43.17;100267.78;16130542;19;129309;-42
2022/11/18 15:44:59;;;;;;;3.60;0.45;;;;;;;18.86;43.45;100265.22;16131355;19;129334;-42
2022/11/18 15:50:21;;;;;;;4.38;0.70;;;;;;;18.81;43.50;100279.06;16126162;19;130503;-43
2022/11/18 15:55:43;;;;;;;2.42;0.52;;;;;;;18.76;43.69;100271.53;16125553;19;129527;-42
2022/11/18 16:01:04;;;;;;;2.25;0.40;;;;;;;18.72;43.72;100281.47;16126334;19;129373;-43
2022/11/18 16:06:26;;;;;;;1.38;0.45;;;;;;;18.67;43.67;100281.41;16127226;19;129119;-43
2022/11/18 16:17:30;;;;;;;2.20;0.30;;;;;;;18.55;43.99;100287.94;16123935;19;129902;-43
2022/11/18 16:22:53;;;;;;;3.47;0.55;;;;;;;18.51;43.68;100286.81;16127674;19;130460;-43
2022/11/18 16:28:15;;;;;;;9.43;0.77;;;;;;;18.50;43.97;100293.44;16125614;19;129584;-43
2022/11/18 16:33:37;;;;;;;4.05;0.50;;;;;;;18.48;43.99;100292.00;16123834;19;131024;-42
2022/11/18 16:39:10;;;;;;;8.32;1.10;;;;;;;18.45;43.88;100294.22;16123524;19;129002;-42
2022/11/18 16:44:32;;;;;;;4.50;0.65;;;;;;;18.42;43.82;100304.97;16122167;19;130374;-42
2022/11/18 16:49:53;;;;;;;2.53;0.57;;;;;;;18.40;44.10;100313.56;16126632;19;128962;-42
2022/11/18 16:55:15;;;;;;;4.18;0.68;;;;;;;18.38;44.41;100320.41;16126115;19;129847;-43
2022/11/18 17:00:37;;;;;;;3.88;0.43;;;;;;;18.35;44.00;100327.28;16121724;19;130210;-42
2022/11/18 17:06:20;;;;;;;3.47;0.50;;;;;;;18.34;44.35;100333.94;16120043;19;129081;-43
2022/11/18 17:11:42;;;;;;;2.42;0.60;;;;;;;18.31;44.16;100351.06;16120180;19;129355;-42
2022/11/18 17:17:04;;;;;;;3.90;0.70;;;;;;;18.29;44.21;100343.00;16123356;19;129275;-44
2022/11/18 17:22:26;;;;;;;9.90;1.50;;;;;;;18.30;44.41;100341.91;16121396;19;130309;-43
2022/11/18 17:27:48;;;;;;;18.52;2.80;;;;;;;18.47;44.88;100352.13;16121687;19;129505;-42
2022/11/18 17:33:10;;;;;;;19.20;2.22;;;;;;;18.75;45.37;100350.22;16117074;19;129479;-43
2022/11/18 17:38:36;;;;;;;25.65;3.30;;;;;;;19.06;44.78;100359.66;16118152;19;129406;-43
2022/11/18 17:43:59;;;;;;;21.10;2.60;;;;;;;19.30;44.73;100364.91;16119490;19;129448;-43
2022/11/18 17:49:21;;;;;;;17.08;2.72;;;;;;;19.47;44.44;100367.53;16111663;19;130035;-42
2022/11/18 17:54:43;;;;;;;15.20;1.88;;;;;;;19.63;43.68;100367.66;16105401;19;129981;-43
2022/11/18 18:00:05;;;;;;;11.02;2.63;;;;;;;19.79;43.46;100372.16;16103251;19;129506;-43
2022/11/18 18:05:27;;;;;;;14.68;2.10;;;;;;;19.98;43.50;100380.91;16097846;19;130240;-43
2022/11/18 18:10:49;;;;;;;15.48;2.00;;;;;;;20.16;42.91;100381.59;16111824;19;130149;-43
2022/11/18 18:16:10;;;;;;;7.75;1.75;;;;;;;20.27;42.96;100394.41;16115560;19;128915;-43
2022/11/18 18:21:34;;;;;;;8.43;1.73;;;;;;;20.33;43.02;100391.66;16127259;19;129536;-42
2022/11/18 18:26:56;;;;;;;15.13;2.28;;;;;;;20.37;43.21;100409.44;16132908;19;134874;-42
2022/11/18 18:32:17;;;;;;;18.25;2.03;;;;;;;20.39;42.68;100401.69;16132103;19;129345;-43
2022/11/18 18:37:39;;;;;;;17.80;1.95;;;;;;;20.37;43.00;100406.66;16130936;19;129959;-43
2022/11/18 18:43:01;;;;;;;15.85;2.20;;;;;;;20.33;42.67;100408.31;16132954;19;131042;-42
2022/11/18 18:48:22;;;;;;;9.15;1.80;;;;;;;20.25;42.84;100410.50;16133030;19;129950;-43
2022/11/18 18:53:44;;;;;;;13.30;2.53;;;;;;;20.17;43.16;100411.03;16132174;19;129369;-43
2022/11/18 18:59:08;;;;;;;10.10;2.00;;;;;;;20.10;43.06;100425.16;16133661;19;129436;-44
2022/11/18 19:04:29;;;;;;;14.15;1.33;;;;;;;20.00;43.44;100416.75;16133425;19;129275;-41
2022/11/18 19:09:51;;;;;;;9.85;1.65;;;;;;;19.90;43.64;100425.81;16133214;19;130881;-43
2022/11/18 19:15:13;;;;;;;11.10;1.55;;;;;;;19.83;43.86;100433.53;16133967;19;129668;-43
2022/11/18 19:20:37;;;;;;;6.13;1.38;;;;;;;19.74;43.66;100432.38;16134117;19;130785;-42
2022/11/18 19:26:00;;;;;;;9.32;1.30;;;;;;;19.66;44.21;100429.00;16133238;19;129400;-42
2022/11/18 19:31:22;;;;;;;12.05;1.60;;;;;;;19.61;44.38;100426.16;16130642;19;129242;-43
2022/11/18 19:36:43;;;;;;;11.07;1.88;;;;;;;19.60;44.04;100446.69;16133504;19;129881;-43
2022/11/18 19:42:05;;;;;;;4.00;1.00;;;;;;;19.65;44.48;100438.41;16131556;19;129085;-42
2022/11/18 19:47:28;;;;;;;6.80;1.25;;;;;;;19.92;44.27;100454.16;16130850;19;130090;-42
2022/11/18 19:52:49;;;;;;;8.23;1.20;;;;;;;20.41;43.42;100449.50;16129810;19;130749;-42
2022/11/18 19:58:11;;;;;;;3.65;1.10;;;;;;;20.87;42.70;100452.47;16130418;19;131848;-42
2022/11/18 20:03:32;;;;;;;6.68;1.25;;;;;;;21.32;42.34;100463.13;16127907;19;129689;-43
2022/11/18 20:08:55;;;;;;;2.80;0.98;;;;;;;21.70;41.66;100460.97;16129167;19;130516;-42
2022/11/18 20:14:17;;;;;;;9.45;1.73;;;;;;;21.95;41.33;100467.63;16125651;19;129750;-43
2022/11/18 20:19:39;;;;;;;11.57;1.45;;;;;;;22.00;41.22;100462.06;16126319;19;129723;-42
2022/11/18 20:25:01;;;;;;;6.15;1.17;;;;;;;21.96;40.87;100460.94;16127737;19;129816;-42
2022/11/18 20:30:22;;;;;;;6.63;1.25;;;;;;;21.86;41.21;100466.53;16127401;19;129382;-43
2022/11/18 20:35:44;;;;;;;5.57;1.00;;;;;;;21.73;41.37;100468.75;16125259;19;130215;-43
2022/11/18 20:41:09;;;;;;;3.47;0.90;;;;;;;21.61;41.50;100476.56;16123267;19;130830;-43
2022/11/18 20:46:32;;;;;;;3.60;0.93;;;;;;;21.46;41.63;100485.72;16125365;19;129668;-42
2022/11/18 20:51:53;;;;;;;3.85;1.13;;;;;;;21.32;41.91;100480.69;16126945;19;129442;-43
2022/11/18 20:57:15;;;;;;;4.03;1.23;;;;;;;21.17;42.08;100481.47;16125515;19;129660;-42
2022/11/18 21:02:37;;;;;;;3.70;1.30;;;;;;;21.03;42.54;100478.38;16124018;19;129412;-42
2022/11/18 21:07:59;;;;;;;5.10;1.20;;;;;;;20.86;42.09;100495.28;16124070;19;129623;-47
2022/11/18 21:19:01;;;;;;;9.57;1.50;;;;;;;20.64;42.11;100501.00;16124426;19;129582;-42
2022/11/18 21:24:27;;;;;;;11.88;1.67;;;;;;;20.54;42.45;100514.84;16122444;19;129732;-42
2022/11/18 21:29:49;;;;;;;8.32;1.00;;;;;;;20.43;42.87;100516.75;16125149;19;130361;-42
2022/11/18 21:35:10;;;;;;;6.07;1.42;;;;;;;20.33;43.07;100514.72;16126423;19;129774;-42
2022/11/18 21:40:32;;;;;;;6.28;1.60;;;;;;;20.24;43.27;100511.59;16122477;19;129276;-43
2022/11/18 21:45:54;;;;;;;6.25;1.15;;;;;;;20.18;42.98;100509.91;16125100;19;129630;-42
2022/11/18 21:51:18;;;;;;;3.75;1.20;;;;;;;20.11;43.24;100512.06;16123774;19;129347;-42
2022/11/18 21:56:40;;;;;;;5.17;1.37;;;;;;;20.04;43.31;100517.03;16131085;19;130135;-34
2022/11/18 22:02:02;;;;;;;2.60;1.00;;;;;;;19.96;43.68;100512.75;16138317;19;129245;-35
2022/11/18 22:07:24;;;;;;;4.05;0.90;;;;;;;19.94;43.56;100523.28;16132834;19;130221;-35
2022/11/18 22:12:47;;;;;;;2.72;0.80;;;;;;;19.90;43.46;100528.53;16136532;19;130608;-34
2022/11/18 22:18:09;;;;;;;3.63;0.70;;;;;;;19.86;43.85;100532.94;16134659;19;129274;-34
2022/11/18 22:23:32;;;;;;;5.70;1.15;;;;;;;19.81;43.99;100530.97;16134555;19;136988;-36
2022/11/18 22:28:56;;;;;;;2.95;0.82;;;;;;;19.78;43.94;100537.03;16134924;19;129472;-35
2022/11/18 22:34:18;;;;;;;2.35;1.00;;;;;;;19.77;44.09;100542.84;16133227;19;130751;-35
2022/11/18 22:39:39;;;;;;;2.30;0.80;;;;;;;19.85;44.01;100534.03;16132372;19;129549;-35
2022/11/18 22:45:01;;;;;;;3.80;0.93;;;;;;;20.03;43.58;100537.56;16130683;19;129359;-34
2022/11/18 22:50:23;;;;;;;1.48;0.63;;;;;;;20.19;43.83;100531.00;16129777;19;129597;-38
2022/11/18 22:55:44;;;;;;;1.52;0.60;;;;;;;20.32;43.73;100540.84;16127023;19;129373;-34
2022/11/18 23:01:16;;;;;;;3.10;0.77;;;;;;;20.41;43.47;100549.50;16131525;19;129735;-34
2022/11/18 23:06:37;;;;;;;6.00;1.20;;;;;;;20.39;43.00;100557.28;16126129;19;129632;-34
2022/11/18 23:17:39;;;;;;;7.90;1.10;;;;;;;20.29;43.39;100578.31;16130310;19;129515;-34
2022/11/18 23:23:01;;;;;;;8.65;0.90;;;;;;;20.21;43.19;100573.25;16130966;19;130047;-34
2022/11/18 23:28:22;;;;;;;4.47;0.88;;;;;;;20.13;43.42;100580.13;16130523;19;130094;-34
2022/11/18 23:33:44;;;;;;;7.10;1.00;;;;;;;20.06;43.52;100581.47;16131197;19;129573;-34
2022/11/18 23:39:07;;;;;;;5.80;1.08;;;;;;;19.98;43.45;100591.09;16130134;19;129402;-35
2022/11/18 23:44:49;;;;;;;7.88;1.10;;;;;;;19.90;43.55;100586.00;16130449;19;129535;-34
2022/11/18 23:50:10;;;;;;;4.50;0.80;;;;;;;19.81;44.12;100591.22;16129414;19;129973;-34
2022/11/18 23:55:32;;;;;;;3.40;0.98;;;;;;;19.75;44.10;100597.78;16128937;19;129458;-34
